Time;durP1;ratioP1;P1;durP2;ratioP2;P2;SDS_P1;SDS_P2;PMS_P1;PMS_P2;Temp;Humidity;BMP_temperature;BMP_pressure;BME280_temperature;BME280_humidity;BME280_pressure;Samples;Min_cycle;Max_cycle;Signal;HPM_P1;HPM_P2
2021/12/21 00:00:51;;;;;;;44.05;18.48;;;-1.00;99.90;;;;;;5103276;28;20432;-67
2021/12/21 00:03:16;;;;;;;41.60;18.75;;;-1.00;99.90;;;;;;5092645;28;20052;-65
2021/12/21 00:05:43;;;;;;;40.47;18.73;;;-1.00;99.90;;;;;;5099698;28;20497;-66
2021/12/21 00:08:11;;;;;;;42.70;19.55;;;-1.00;99.90;;;;;;5107565;28;20434;-66
2021/12/21 00:10:38;;;;;;;36.92;17.50;;;-1.00;99.90;;;;;;5107801;28;20054;-66
2021/12/21 00:13:20;;;;;;;48.43;19.80;;;-1.00;99.90;;;;;;5107480;28;20096;-69
2021/12/21 00:26:01;;;;;;;41.67;18.70;;;-1.10;99.90;;;;;;5097816;28;20064;-66
2021/12/21 00:28:30;;;;;;;52.72;18.23;;;-1.10;99.90;;;;;;5096501;28;20170;-66
2021/12/21 00:30:56;;;;;;;42.75;19.80;;;-1.10;99.90;;;;;;5098444;28;20122;-66
2021/12/21 00:33:21;;;;;;;42.50;18.25;;;-1.10;99.90;;;;;;5090456;28;20190;-66
2021/12/21 00:35:47;;;;;;;40.00;18.38;;;-1.10;99.90;;;;;;5094900;28;20409;-66
2021/12/21 00:38:13;;;;;;;43.50;17.90;;;-1.10;99.90;;;;;;5087074;28;20071;-66
2021/12/21 00:40:39;;;;;;;41.17;17.70;;;-1.20;99.90;;;;;;5096137;28;20036;-66
2021/12/21 00:43:05;;;;;;;36.03;17.10;;;-1.20;99.90;;;;;;5097993;28;20050;-67
2021/12/21 00:45:31;;;;;;;39.28;17.45;;;-1.20;99.90;;;;;;5097524;28;20331;-67
2021/12/21 00:47:57;;;;;;;36.63;17.23;;;-1.20;99.90;;;;;;5095741;28;20089;-66
2021/12/21 00:50:24;;;;;;;37.63;17.75;;;-1.20;99.90;;;;;;5092533;28;20139;-66
2021/12/21 00:52:51;;;;;;;36.50;16.75;;;-1.20;99.90;;;;;;5078932;28;20059;-66
2021/12/21 00:55:18;;;;;;;38.43;16.63;;;-1.20;99.90;;;;;;5095561;27;20474;-67
2021/12/21 00:57:45;;;;;;;39.35;15.50;;;-1.20;99.90;;;;;;5097340;28;20039;-65
2021/12/21 01:00:12;;;;;;;36.42;15.55;;;-1.20;99.90;;;;;;5094825;28;20050;-67
2021/12/21 01:02:39;;;;;;;30.23;14.20;;;-1.20;99.90;;;;;;5097933;28;20043;-67
2021/12/21 01:05:11;;;;;;;34.40;14.80;;;-1.20;99.90;;;;;;5107021;27;20372;-65
2021/12/21 01:07:42;;;;;;;42.38;15.98;;;-1.30;99.90;;;;;;5093782;28;20043;-66
2021/12/21 01:10:45;;;;;;;38.22;14.60;;;-1.30;99.90;;;;;;5093251;28;20511;-65
2021/12/21 01:18:07;;;;;;;37.25;13.80;;;-1.30;99.90;;;;;;5094932;28;20044;-65
2021/12/21 01:20:38;;;;;;;35.70;14.98;;;-1.30;99.90;;;;;;5094465;28;20036;-67
2021/12/21 01:28:34;;;;;;;30.83;13.60;;;-1.30;99.90;;;;;;5073940;28;20500;-66
2021/12/21 01:31:18;;;;;;;41.60;13.57;;;-1.30;99.90;;;;;;5093523;28;20040;-66
2021/12/21 01:42:02;;;;;;;36.08;13.60;;;-1.40;99.90;;;;;;5099455;28;20044;-67
2021/12/21 01:49:56;;;;;;;33.58;13.02;;;-1.40;99.90;;;;;;5100046;28;20122;-67
2021/12/21 01:52:25;;;;;;;26.38;11.82;;;-1.40;99.90;;;;;;5105382;28;20138;-66
2021/12/21 01:54:52;;;;;;;;;;;-1.40;99.90;;;;;;5095673;28;20120;-67
2021/12/21 01:57:18;;;;;;;27.95;12.32;;;-1.40;99.90;;;;;;5091325;28;20368;-64
2021/12/21 01:59:46;;;;;;;27.77;11.88;;;-1.40;99.90;;;;;;5092121;28;20043;-66
2021/12/21 02:02:13;;;;;;;37.58;13.02;;;-1.40;99.90;;;;;;5107617;28;20474;-66
2021/12/21 02:04:41;;;;;;;29.23;11.52;;;-1.40;99.90;;;;;;5099193;28;20047;-65
2021/12/21 02:07:08;;;;;;;28.55;12.13;;;-1.40;99.90;;;;;;5105968;28;20443;-65
2021/12/21 02:09:39;;;;;;;28.83;12.82;;;-1.40;99.90;;;;;;5083133;28;20400;-66
2021/12/21 02:12:08;;;;;;;25.83;12.88;;;-1.50;99.90;;;;;;5107866;28;20056;-66
2021/12/21 02:14:35;;;;;;;33.45;13.30;;;-1.50;99.90;;;;;;5099460;28;20320;-67
2021/12/21 02:22:43;;;;;;;31.30;13.80;;;-1.50;99.90;;;;;;5108266;28;20423;-66
2021/12/21 02:26:23;;;;;;;32.47;13.43;;;-1.50;99.90;;;;;;5101988;28;20064;-66
2021/12/21 02:30:50;;;;;;;24.30;12.10;;;-1.50;99.90;;;;;;5102000;28;20400;-65
2021/12/21 02:33:16;;;;;;;30.00;12.18;;;-1.50;99.90;;;;;;5099765;28;20040;-67
2021/12/21 02:35:42;;;;;;;33.00;12.80;;;-1.50;99.90;;;;;;5102306;28;20054;-65
2021/12/21 02:38:09;;;;;;;26.90;12.73;;;-1.60;99.90;;;;;;5105458;28;20401;-66
2021/12/21 02:40:36;;;;;;;33.42;12.93;;;-1.50;99.90;;;;;;5106056;28;20138;-66
2021/12/21 02:43:04;;;;;;;23.63;11.75;;;-1.50;99.90;;;;;;5087569;28;20047;-66
2021/12/21 02:45:30;;;;;;;30.52;12.70;;;-1.50;99.90;;;;;;5107989;28;20043;-66
2021/12/21 02:47:55;;;;;;;33.88;12.52;;;-1.50;99.90;;;;;;5100502;28;20046;-68
2021/12/21 02:50:22;;;;;;;31.98;12.82;;;-1.60;99.90;;;;;;5100332;28;20054;-68
2021/12/21 02:52:48;;;;;;;29.50;11.75;;;-1.50;99.90;;;;;;5098906;28;20373;-67
2021/12/21 02:55:14;;;;;;;30.13;12.38;;;-1.50;99.90;;;;;;5104492;28;20032;-67
2021/12/21 02:57:41;;;;;;;33.28;11.98;;;-1.60;99.90;;;;;;5103433;28;20035;-66
2021/12/21 03:00:09;;;;;;;26.05;11.00;;;-1.50;99.90;;;;;;5096978;28;20434;-65
2021/12/21 03:02:35;;;;;;;22.85;11.38;;;-1.50;99.90;;;;;;5105327;28;20094;-66
2021/12/21 03:05:01;;;;;;;23.10;11.80;;;-1.60;99.90;;;;;;5098334;28;20083;-66
2021/12/21 03:08:01;;;;;;;31.83;12.27;;;-1.60;99.90;;;;;;5116354;27;20089;-66
2021/12/21 03:10:15;;;;;;;27.48;12.10;;;-1.60;99.90;;;;;;5100605;28;20098;-67
2021/12/21 03:15:21;;;;;;;28.27;10.93;;;-1.60;99.90;;;;;;5099819;28;19926;-66
2021/12/21 03:17:48;;;;;;;27.70;11.85;;;-1.60;99.90;;;;;;5098195;28;20100;-67
2021/12/21 03:20:13;;;;;;;24.40;11.35;;;-1.70;99.90;;;;;;5099472;27;20039;-67
2021/12/21 03:22:39;;;;;;;25.10;11.40;;;-1.70;99.90;;;;;;5074973;28;20096;-68
2021/12/21 03:25:06;;;;;;;23.15;11.82;;;-1.70;99.90;;;;;;5098868;28;20040;-68
2021/12/21 03:27:32;;;;;;;23.98;10.88;;;-1.70;99.90;;;;;;5099094;28;20035;-66
2021/12/21 03:29:58;;;;;;;24.10;11.65;;;-1.70;99.90;;;;;;5124720;27;20444;-67
2021/12/21 03:32:24;;;;;;;27.63;10.35;;;-1.70;99.90;;;;;;5112683;28;20114;-66
2021/12/21 03:34:50;;;;;;;26.63;12.45;;;-1.70;99.90;;;;;;5104972;28;20395;-66
2021/12/21 03:37:16;;;;;;;26.77;9.82;;;-1.70;99.90;;;;;;5106899;27;20043;-66
2021/12/21 03:39:44;;;;;;;28.65;10.50;;;-1.80;99.90;;;;;;5105175;28;20494;-66
2021/12/21 03:42:12;;;;;;;26.98;11.05;;;-1.80;99.90;;;;;;5103256;28;20085;-67
2021/12/21 03:44:38;;;;;;;22.50;11.30;;;-1.80;99.90;;;;;;5084455;28;20052;-69
2021/12/21 03:47:04;;;;;;;20.80;11.07;;;-1.80;99.90;;;;;;5079655;28;20448;-66
2021/12/21 03:52:05;;;;;;;21.80;10.10;;;-1.80;99.90;;;;;;5105511;28;20540;-68
2021/12/21 03:54:31;;;;;;;22.08;9.85;;;-1.80;99.90;;;;;;5095719;28;20051;-67
2021/12/21 03:56:57;;;;;;;18.83;10.10;;;-1.80;99.90;;;;;;5107381;28;20055;-68
2021/12/21 03:59:22;;;;;;;24.30;11.00;;;-1.80;99.90;;;;;;5097255;28;20044;-67
2021/12/21 04:01:49;;;;;;;22.55;9.43;;;-1.80;99.90;;;;;;5089565;28;20070;-67
2021/12/21 04:04:19;;;;;;;18.50;9.60;;;-1.80;99.90;;;;;;5092197;28;20067;-67
2021/12/21 04:06:46;;;;;;;22.33;10.23;;;-1.90;99.90;;;;;;5107765;28;20058;-66
2021/12/21 04:09:12;;;;;;;26.45;10.57;;;-1.90;99.90;;;;;;5101863;28;20102;-67
2021/12/21 04:11:38;;;;;;;21.83;9.52;;;-1.90;99.90;;;;;;5102542;28;20047;-67
2021/12/21 04:14:05;;;;;;;19.13;10.43;;;-1.90;99.90;;;;;;5096702;28;20048;-66
2021/12/21 04:16:30;;;;;;;22.23;10.18;;;-1.90;99.90;;;;;;5093289;28;20072;-67
2021/12/21 04:18:56;;;;;;;18.88;9.40;;;-1.90;99.90;;;;;;5109342;28;20132;-67
2021/12/21 04:21:22;;;;;;;18.85;9.85;;;-1.90;99.90;;;;;;5110631;28;20036;-67
2021/12/21 04:23:48;;;;;;;23.60;9.75;;;-1.90;99.90;;;;;;5107986;28;20062;-67
2021/12/21 04:26:15;;;;;;;22.50;10.48;;;-1.90;99.90;;;;;;5076162;28;20158;-66
2021/12/21 04:28:41;;;;;;;24.23;9.73;;;-1.90;99.90;;;;;;5102948;28;20042;-66
2021/12/21 04:31:10;;;;;;;26.42;9.95;;;-1.90;99.90;;;;;;5097685;28;20119;-66
2021/12/21 04:33:36;;;;;;;24.95;11.00;;;-2.70;99.90;;;;;;5092900;28;20506;-66
2021/12/21 04:36:03;;;;;;;21.95;10.95;;;-1.90;99.90;;;;;;5103358;28;20502;-66
2021/12/21 04:38:34;;;;;;;26.50;10.38;;;-1.90;99.90;;;;;;5106118;28;20497;-66
2021/12/21 04:41:13;;;;;;;22.83;10.82;;;-1.90;99.90;;;;;;5100781;28;20051;-67
2021/12/21 04:43:39;;;;;;;26.33;9.38;;;-1.90;99.90;;;;;;5074597;28;20039;-66
2021/12/21 04:46:05;;;;;;;21.15;9.60;;;-2.00;99.90;;;;;;5101118;28;20032;-66
2021/12/21 04:48:31;;;;;;;23.42;9.88;;;-2.00;99.90;;;;;;5107301;28;20583;-66
2021/12/21 04:50:57;;;;;;;27.05;10.95;;;-2.00;99.90;;;;;;5095240;28;20375;-66
2021/12/21 04:53:24;;;;;;;24.50;8.98;;;-2.00;99.90;;;;;;5102808;28;20101;-66
2021/12/21 04:55:50;;;;;;;23.67;9.18;;;-2.00;99.90;;;;;;5083542;28;20115;-66
2021/12/21 04:58:16;;;;;;;26.45;9.35;;;-2.00;99.90;;;;;;5086404;28;20044;-66
2021/12/21 05:00:41;;;;;;;21.67;9.65;;;-2.00;99.90;;;;;;5087516;28;20050;-66
2021/12/21 05:03:07;;;;;;;19.25;8.93;;;-2.00;99.90;;;;;;5100324;28;20059;-66
2021/12/21 05:05:33;;;;;;;20.27;9.00;;;-2.00;99.90;;;;;;5095159;28;20043;-66
2021/12/21 05:08:36;;;;;;;20.58;9.32;;;-2.00;99.90;;;;;;5093134;28;20497;-65
2021/12/21 05:10:58;;;;;;;24.15;10.02;;;-2.00;99.90;;;;;;5092290;28;20055;-66
2021/12/21 05:13:26;;;;;;;20.50;9.60;;;-2.00;99.90;;;;;;5086767;28;20088;-66
2021/12/21 05:15:52;;;;;;;21.27;9.20;;;-2.00;99.90;;;;;;5112273;27;21643;-66
2021/12/21 05:18:32;;;;;;;23.38;9.25;;;-2.10;99.90;;;;;;5115386;27;20930;-66
2021/12/21 05:20:59;;;;;;;18.90;8.98;;;-2.00;99.90;;;;;;5100125;28;20048;-67
2021/12/21 05:23:24;;;;;;;17.27;8.40;;;-2.10;99.90;;;;;;5097624;28;21167;-67
2021/12/21 05:25:50;;;;;;;20.48;8.93;;;-2.10;99.90;;;;;;5099126;28;20130;-68
2021/12/21 05:28:19;;;;;;;16.85;8.82;;;-2.10;99.90;;;;;;5099471;28;20056;-67
2021/12/21 05:30:45;;;;;;;21.33;9.20;;;-1.70;99.90;;;;;;5101606;28;20044;-66
2021/12/21 05:33:11;;;;;;;14.05;7.82;;;-2.10;99.90;;;;;;5101030;28;20048;-65
2021/12/21 05:35:37;;;;;;;18.20;8.25;;;-2.10;99.90;;;;;;5098976;28;20150;-68
2021/12/21 05:38:06;;;;;;;14.02;8.52;;;-2.10;99.90;;;;;;5100493;28;20051;-65
2021/12/21 05:40:36;;;;;;;20.55;8.52;;;-2.10;99.90;;;;;;5099727;28;20050;-66
2021/12/21 05:43:03;;;;;;;23.63;9.23;;;-2.10;99.90;;;;;;5107130;28;20119;-66
2021/12/21 05:45:28;;;;;;;18.60;8.65;;;-2.10;99.90;;;;;;5098704;28;20489;-67
2021/12/21 05:47:54;;;;;;;17.80;8.75;;;-2.20;99.90;;;;;;5089953;28;20097;-68
2021/12/21 05:50:20;;;;;;;19.65;8.77;;;-2.20;99.90;;;;;;5094919;28;20097;-67
2021/12/21 05:52:47;;;;;;;17.65;8.85;;;-2.10;99.90;;;;;;5100396;28;20123;-66
2021/12/21 05:55:14;;;;;;;15.85;9.45;;;-2.10;99.90;;;;;;5103120;28;20127;-70
2021/12/21 05:57:40;;;;;;;29.77;10.15;;;-2.10;99.90;;;;;;5102659;28;20450;-67
2021/12/21 06:00:12;;;;;;;17.77;9.15;;;-2.10;99.90;;;;;;5103779;28;20039;-66
2021/12/21 06:02:38;;;;;;;20.05;9.77;;;-2.10;99.90;;;;;;5102857;28;20044;-66
2021/12/21 06:05:04;;;;;;;24.80;10.23;;;-2.00;99.90;;;;;;5094421;28;20043;-68
2021/12/21 06:07:31;;;;;;;15.63;8.43;;;-2.00;99.90;;;;;;5089563;28;20044;-66
2021/12/21 06:09:57;;;;;;;23.55;8.10;;;-2.00;99.90;;;;;;5097443;28;20051;-66
2021/12/21 06:23:31;;;;;;;17.70;5.88;;;-2.00;99.90;;;;;;5098339;28;20078;-68
2021/12/21 06:25:59;;;;;;;14.52;6.47;;;-2.00;99.90;;;;;;5101837;28;20188;-67
2021/12/21 06:28:25;;;;;;;17.05;6.25;;;-2.00;99.90;;;;;;5088755;28;20071;-66
2021/12/21 06:30:51;;;;;;;16.88;6.32;;;-2.00;99.90;;;;;;5085011;28;20105;-66
2021/12/21 06:33:17;;;;;;;13.73;5.75;;;-2.00;99.90;;;;;;5083367;28;20505;-67
2021/12/21 06:35:43;;;;;;;16.52;6.03;;;-1.90;99.90;;;;;;5074182;28;20044;-67
2021/12/21 06:38:10;;;;;;;14.00;6.32;;;-1.90;99.90;;;;;;5081832;28;20041;-68
2021/12/21 06:40:36;;;;;;;15.65;5.80;;;-1.90;99.90;;;;;;5090166;28;20044;-66
2021/12/21 06:43:03;;;;;;;18.92;5.63;;;-1.80;99.90;;;;;;5090768;28;20046;-66
2021/12/21 06:53:27;;;;;;;16.83;5.90;;;-1.80;99.90;;;;;;5083580;28;20052;-66
2021/12/21 06:55:53;;;;;;;9.57;4.72;;;-1.80;99.90;;;;;;5077806;28;20044;-66
2021/12/21 06:58:19;;;;;;;9.45;5.07;;;-1.80;99.90;;;;;;5090859;28;20066;-65
2021/12/21 07:00:46;;;;;;;11.68;5.95;;;-1.80;99.90;;;;;;5088606;28;20039;-66
2021/12/21 07:03:13;;;;;;;16.60;5.65;;;-1.80;99.90;;;;;;5077298;28;20099;-66
2021/12/21 07:05:40;;;;;;;13.73;5.18;;;-1.80;99.90;;;;;;5058445;28;20066;-66
2021/12/21 07:08:11;;;;;;;15.45;6.15;;;-1.80;99.90;;;;;;5086344;28;20043;-66
2021/12/21 07:10:38;;;;;;;14.73;5.78;;;-1.80;99.90;;;;;;5086158;28;20131;-66
2021/12/21 07:18:34;;;;;;;25.75;7.03;;;-1.80;99.90;;;;;;5085198;28;20473;-65
2021/12/21 07:21:01;;;;;;;16.52;6.07;;;-1.70;99.90;;;;;;5084905;28;20123;-66
2021/12/21 07:23:27;;;;;;;14.98;5.43;;;-1.80;99.90;;;;;;5086532;28;20036;-67
2021/12/21 07:25:53;;;;;;;18.20;6.90;;;-1.70;99.90;;;;;;5082054;28;20036;-68
2021/12/21 07:28:20;;;;;;;14.30;6.97;;;-1.70;99.90;;;;;;5087306;28;20063;-66
2021/12/21 07:30:47;;;;;;;21.20;6.25;;;-1.70;99.90;;;;;;5087719;28;20039;-67
2021/12/21 07:33:14;;;;;;;14.75;6.93;;;-1.70;99.90;;;;;;5086810;28;20498;-66
2021/12/21 07:35:40;;;;;;;22.08;6.80;;;-1.70;99.90;;;;;;5082870;28;20048;-66
2021/12/21 07:38:05;;;;;;;21.75;7.35;;;-1.70;99.90;;;;;;5082544;28;20040;-67
2021/12/21 07:40:31;;;;;;;20.10;7.15;;;-1.70;99.90;;;;;;5080161;28;20454;-66
2021/12/21 07:42:58;;;;;;;15.38;7.45;;;-1.70;99.90;;;;;;5077971;28;20437;-66
2021/12/21 07:45:25;;;;;;;17.23;7.45;;;-1.70;99.90;;;;;;5087778;28;20094;-66
2021/12/21 07:47:50;;;;;;;15.82;8.60;;;-1.70;99.90;;;;;;5084948;28;20036;-69
2021/12/21 07:50:16;;;;;;;16.65;7.68;;;-1.60;99.90;;;;;;5086310;28;20056;-67
2021/12/21 07:52:42;;;;;;;18.08;7.60;;;-1.60;99.90;;;;;;5060036;28;20048;-66
2021/12/21 07:55:08;;;;;;;16.38;7.82;;;-1.60;99.90;;;;;;5083366;28;20047;-66
2021/12/21 07:57:34;;;;;;;17.08;8.07;;;-1.60;99.90;;;;;;5079924;28;20041;-66
2021/12/21 08:00:03;;;;;;;16.23;7.63;;;-1.60;99.90;;;;;;5083627;28;20101;-66
2021/12/21 08:02:29;;;;;;;12.98;7.38;;;-1.60;99.90;;;;;;5062571;28;20048;-66
2021/12/21 08:04:55;;;;;;;22.02;7.88;;;-1.60;99.90;;;;;;5090490;28;20055;-66
2021/12/21 08:07:25;;;;;;;14.07;8.20;;;-1.50;99.90;;;;;;5090079;28;20044;-67
2021/12/21 08:09:54;;;;;;;19.80;7.75;;;-1.50;99.90;;;;;;5074099;28;20037;-67
2021/12/21 08:12:21;;;;;;;17.40;7.80;;;-1.50;99.90;;;;;;5082972;28;20036;-67
2021/12/21 08:14:49;;;;;;;21.30;7.63;;;-1.50;99.90;;;;;;5084974;28;20147;-67
2021/12/21 08:17:16;;;;;;;16.02;7.15;;;-1.50;99.90;;;;;;5084719;28;20065;-67
2021/12/21 08:19:43;;;;;;;16.23;7.38;;;-1.50;99.90;;;;;;5085089;28;20044;-67
2021/12/21 08:22:08;;;;;;;18.92;7.43;;;-1.50;99.90;;;;;;5080998;28;20051;-68
2021/12/21 08:24:34;;;;;;;22.33;7.53;;;-1.50;99.90;;;;;;5083624;28;20130;-66
2021/12/21 08:27:04;;;;;;;20.90;7.65;;;-1.50;99.90;;;;;;5078082;28;20032;-66
2021/12/21 08:29:30;;;;;;;19.38;7.53;;;-1.40;99.90;;;;;;5077754;28;20048;-66
2021/12/21 08:31:56;;;;;;;20.48;8.20;;;-1.40;99.90;;;;;;5081123;28;20063;-67
2021/12/21 08:34:22;;;;;;;17.15;7.20;;;-1.30;99.90;;;;;;5091059;28;20486;-66
2021/12/21 08:36:49;;;;;;;24.58;9.00;;;-1.30;99.90;;;;;;5080607;28;20430;-66
2021/12/21 08:39:16;;;;;;;18.98;8.48;;;-1.30;99.90;;;;;;5090999;28;20050;-66
2021/12/21 08:41:44;;;;;;;27.35;9.30;;;-1.20;99.90;;;;;;5088203;28;20486;-68
2021/12/21 08:44:16;;;;;;;20.63;9.65;;;-1.10;99.90;;;;;;5080229;28;20044;-67
2021/12/21 08:46:42;;;;;;;19.38;8.82;;;-1.00;99.90;;;;;;5089639;28;20557;-68
2021/12/21 08:49:08;;;;;;;22.25;10.10;;;-0.90;99.90;;;;;;5086126;28;20056;-66
2021/12/21 08:51:33;;;;;;;17.73;9.43;;;-0.90;99.90;;;;;;5082821;28;20115;-66
2021/12/21 08:53:59;;;;;;;20.10;9.63;;;-0.80;99.90;;;;;;5081899;28;20423;-67
2021/12/21 08:56:25;;;;;;;23.58;9.73;;;-0.80;99.90;;;;;;5084344;28;20080;-66
2021/12/21 08:58:50;;;;;;;18.58;9.70;;;-0.70;99.90;;;;;;5082182;28;20029;-67
2021/12/21 09:01:17;;;;;;;18.45;10.05;;;-1.30;99.90;;;;;;5085384;28;20048;-66
2021/12/21 09:03:43;;;;;;;23.35;10.48;;;-0.50;99.90;;;;;;5085857;28;20044;-66
2021/12/21 09:06:09;;;;;;;15.32;9.68;;;-0.40;99.90;;;;;;5079135;28;20124;-67
2021/12/21 09:08:35;;;;;;;19.52;8.38;;;-0.30;99.90;;;;;;5077915;28;20073;-67
2021/12/21 09:11:04;;;;;;;23.05;8.70;;;-0.20;99.90;;;;;;5078631;28;20581;-68
2021/12/21 09:13:31;;;;;;;20.30;8.77;;;-0.10;99.90;;;;;;5062469;28;20044;-67
2021/12/21 09:15:57;;;;;;;29.83;8.77;;;0.00;99.90;;;;;;5077872;28;20042;-67
2021/12/21 09:18:23;;;;;;;21.63;8.93;;;0.10;99.90;;;;;;5089180;28;20516;-67
2021/12/21 09:20:49;;;;;;;20.33;9.02;;;0.60;99.90;;;;;;5081614;28;20130;-68
2021/12/21 09:23:15;;;;;;;15.63;8.10;;;0.60;99.90;;;;;;5086353;28;20071;-66
2021/12/21 09:25:40;;;;;;;19.23;8.02;;;0.80;99.90;;;;;;5070998;28;20071;-67
2021/12/21 09:28:06;;;;;;;18.67;8.35;;;1.10;99.90;;;;;;5079880;28;20466;-67
2021/12/21 09:30:32;;;;;;;14.57;8.27;;;1.30;99.90;;;;;;5072129;28;20056;-66
2021/12/21 09:32:59;;;;;;;14.57;7.60;;;1.30;99.90;;;;;;5076167;28;20040;-65
2021/12/21 09:35:25;;;;;;;14.68;7.00;;;1.60;99.90;;;;;;5085794;28;20048;-67
2021/12/21 09:37:52;;;;;;;18.42;7.10;;;2.00;99.90;;;;;;5084000;28;20094;-67
2021/12/21 09:40:21;;;;;;;22.73;9.60;;;2.30;99.90;;;;;;5082272;28;20052;-68
2021/12/21 09:42:48;;;;;;;17.13;7.85;;;2.60;99.90;;;;;;5078320;28;20060;-67
2021/12/21 09:45:14;;;;;;;18.17;7.25;;;2.90;99.90;;;;;;5082165;28;20185;-67
2021/12/21 09:47:40;;;;;;;11.38;5.70;;;3.30;99.90;;;;;;5078127;28;20040;-67
2021/12/21 09:50:08;;;;;;;17.92;6.32;;;3.60;99.90;;;;;;5084111;28;20051;-67
2021/12/21 09:52:34;;;;;;;10.65;5.72;;;3.80;99.90;;;;;;5080382;28;20048;-68
2021/12/21 09:55:03;;;;;;;14.70;5.35;;;4.00;99.90;;;;;;5082235;28;20494;-68
2021/12/21 09:57:29;;;;;;;16.48;5.43;;;3.90;99.90;;;;;;5085350;28;20056;-67
2021/12/21 09:59:55;;;;;;;17.83;5.55;;;3.80;99.90;;;;;;5071453;28;20546;-67
2021/12/21 10:02:26;;;;;;;14.80;5.25;;;3.40;99.90;;;;;;5075065;28;20059;-67
2021/12/21 10:04:59;;;;;;;14.75;5.20;;;3.10;99.90;;;;;;5079834;28;20463;-67
2021/12/21 10:07:26;;;;;;;13.77;5.85;;;2.80;99.90;;;;;;5081954;28;20032;-67
2021/12/21 10:10:05;;;;;;;16.02;6.65;;;2.50;99.90;;;;;;5082872;28;20112;-66
2021/12/21 10:12:34;;;;;;;13.65;6.10;;;2.30;99.90;;;;;;5080390;28;20044;-66
2021/12/21 10:15:01;;;;;;;;;;;2.10;99.90;;;;;;5082316;28;20044;-66
2021/12/21 10:17:27;;;;;;;16.88;6.57;;;1.90;99.90;;;;;;5104692;28;20428;-66
2021/12/21 10:19:52;;;;;;;10.93;6.32;;;1.80;99.90;;;;;;5087427;28;20167;-66
2021/12/21 10:22:18;;;;;;;15.02;7.10;;;1.70;99.90;;;;;;5086023;28;20040;-69
2021/12/21 10:24:50;;;;;;;21.10;7.93;;;1.60;99.90;;;;;;5073989;28;20481;-69
2021/12/21 10:27:18;;;;;;;15.48;7.07;;;1.60;99.90;;;;;;5091117;28;20093;-67
2021/12/21 10:29:53;;;;;;;12.93;7.00;;;1.50;99.90;;;;;;5088835;28;20071;-67
2021/12/21 10:32:22;;;;;;;16.50;8.32;;;1.40;99.90;;;;;;5094171;28;20090;-67
2021/12/21 10:34:52;;;;;;;;;;;2.80;99.90;;;;;;5084304;28;20037;-65
2021/12/21 10:37:27;;;;;;;;;;;1.40;99.90;;;;;;5079620;28;20317;-66
2021/12/21 10:40:17;;;;;;;16.33;7.35;;;1.40;99.90;;;;;;5075906;28;19994;-67
2021/12/21 10:43:07;;;;;;;16.27;8.43;;;1.40;99.90;;;;;;5083910;28;20438;-66
2021/12/21 10:45:36;;;;;;;;;;;1.40;99.90;;;;;;5075692;28;20155;-66
2021/12/21 10:48:06;;;;;;;16.02;7.50;;;1.30;99.90;;;;;;5087392;28;19962;-67
2021/12/21 10:50:33;;;;;;;11.18;6.43;;;1.30;99.90;;;;;;5079589;28;20508;-67
2021/12/21 10:53:01;;;;;;;15.60;6.57;;;1.30;99.90;;;;;;5081184;28;20140;-67
2021/12/21 10:55:31;;;;;;;12.75;6.00;;;1.30;99.90;;;;;;5082781;28;20044;-67
2021/12/21 10:58:08;;;;;;;18.17;6.95;;;1.30;99.90;;;;;;5078732;28;20043;-67
2021/12/21 11:00:36;;;;;;;14.77;6.03;;;1.30;99.90;;;;;;5052502;28;20067;-67
2021/12/21 11:03:02;;;;;;;13.10;5.82;;;1.30;99.90;;;;;;5079588;28;20363;-65
2021/12/21 11:05:28;;;;;;;12.30;5.50;;;1.30;99.90;;;;;;5071595;28;20120;-66
2021/12/21 11:07:59;;;;;;;23.65;5.60;;;1.30;99.90;;;;;;5074145;28;20087;-67
2021/12/21 11:10:30;;;;;;;14.30;5.70;;;1.30;99.90;;;;;;5084931;28;20055;-67
2021/12/21 11:13:07;;;;;;;12.55;5.05;;;1.40;99.90;;;;;;5091112;28;20112;-67
2021/12/21 11:15:36;;;;;;;12.40;5.72;;;1.30;99.90;;;;;;5088069;28;20087;-68
2021/12/21 11:18:13;;;;;;;10.95;4.88;;;1.40;99.90;;;;;;5080199;28;20064;-68
2021/12/21 11:20:42;;;;;;;13.15;5.30;;;1.40;99.90;;;;;;5081765;28;20051;-67
2021/12/21 11:23:12;;;;;;;10.38;4.97;;;1.50;99.90;;;;;;5086675;28;20040;-67
2021/12/21 11:25:41;;;;;;;16.45;5.13;;;1.50;99.90;;;;;;5080861;28;20049;-67
2021/12/21 11:28:06;;;;;;;14.50;4.82;;;1.50;99.90;;;;;;5076211;28;20047;-67
2021/12/21 11:30:34;;;;;;;12.98;5.20;;;1.60;99.90;;;;;;5084702;28;20490;-67
2021/12/21 11:33:03;;;;;;;14.33;5.07;;;1.70;99.90;;;;;;5083063;28;20096;-66
2021/12/21 11:38:00;;;;;;;11.98;5.50;;;1.70;99.90;;;;;;5087875;28;20059;-67
2021/12/21 11:40:31;;;;;;;16.20;5.32;;;1.70;99.90;;;;;;5077495;28;20458;-66
2021/12/21 11:43:08;;;;;;;13.45;5.10;;;1.70;99.90;;;;;;5090534;28;20405;-66
2021/12/21 11:45:41;;;;;;;12.10;6.32;;;1.80;99.90;;;;;;5083494;28;20052;-67
2021/12/21 11:48:09;;;;;;;14.90;5.18;;;1.80;99.90;;;;;;5078869;28;20123;-67
2021/12/21 11:50:36;;;;;;;;;;;1.80;99.90;;;;;;5079439;28;20473;-66
2021/12/21 11:53:05;;;;;;;12.80;6.22;;;1.70;99.90;;;;;;5080040;28;19986;-67
2021/12/21 11:55:31;;;;;;;17.10;7.20;;;1.80;99.90;;;;;;5074611;28;20814;-67
2021/12/21 11:58:20;;;;;;;9.98;5.82;;;1.70;99.90;;;;;;5065265;28;20075;-67
2021/12/21 12:00:49;;;;;;;14.55;5.70;;;1.70;99.90;;;;;;5072778;28;20052;-66
2021/12/21 12:03:21;;;;;;;11.32;6.90;;;1.70;99.90;;;;;;5078907;28;20131;-67
2021/12/21 12:06:05;;;;;;;13.45;5.70;;;1.80;99.90;;;;;;5087876;28;20050;-67
2021/12/21 12:08:45;;;;;;;10.68;5.60;;;1.80;99.90;;;;;;5075498;28;20101;-67
2021/12/21 12:11:24;;;;;;;;;;;1.80;99.90;;;;;;5076565;28;20462;-66
2021/12/21 12:14:01;;;;;;;12.98;5.35;;;1.80;99.90;;;;;;5084306;28;20374;-68
2021/12/21 12:16:27;;;;;;;8.45;4.90;;;1.80;99.90;;;;;;5082301;28;20066;-67
2021/12/21 12:18:53;;;;;;;20.67;5.93;;;1.80;99.90;;;;;;5083178;28;20044;-67
2021/12/21 12:21:25;;;;;;;12.57;5.18;;;1.80;99.90;;;;;;5087097;28;20048;-66
2021/12/21 12:23:50;;;;;;;10.50;5.40;;;1.90;99.90;;;;;;5080261;28;20105;-67
2021/12/21 12:26:25;;;;;;;9.82;5.13;;;1.90;99.90;;;;;;5080854;28;20044;-67
2021/12/21 12:28:52;;;;;;;9.57;4.93;;;1.90;99.90;;;;;;5080271;28;20090;-67
2021/12/21 12:31:37;;;;;;;12.20;4.75;;;1.80;99.90;;;;;;5085493;28;20180;-68
2021/12/21 12:34:04;;;;;;;13.23;4.93;;;1.80;99.90;;;;;;5087574;28;20067;-68
2021/12/21 12:36:56;;;;;;;11.45;4.28;;;1.90;99.90;;;;;;5078709;28;20044;-67
2021/12/21 12:39:31;;;;;;;10.15;4.78;;;1.90;99.90;;;;;;5083950;28;20047;-67
2021/12/21 12:42:06;;;;;;;12.85;4.88;;;1.90;99.90;;;;;;5081441;28;20040;-67
2021/12/21 12:44:32;;;;;;;15.88;5.32;;;1.90;99.90;;;;;;5077006;28;20039;-67
2021/12/21 12:47:02;;;;;;;8.30;4.45;;;1.90;99.90;;;;;;5075548;28;20144;-67
2021/12/21 12:49:31;;;;;;;10.73;4.57;;;1.90;99.90;;;;;;5063477;28;20370;-67
2021/12/21 12:52:13;;;;;;;12.10;4.85;;;1.90;99.90;;;;;;5080424;28;20055;-67
2021/12/21 12:54:58;;;;;;;14.00;4.78;;;1.90;99.90;;;;;;5083102;28;20490;-67
2021/12/21 12:57:36;;;;;;;12.93;4.97;;;2.00;99.90;;;;;;5086189;28;20040;-66
2021/12/21 13:00:25;;;;;;;11.00;4.25;;;2.00;99.90;;;;;;5082210;28;20109;-66
2021/12/21 13:03:03;;;;;;;14.90;4.90;;;1.90;99.90;;;;;;5085916;28;20185;-67
2021/12/21 13:05:38;;;;;;;10.93;4.50;;;1.90;99.90;;;;;;5074884;28;20474;-67
2021/12/21 13:08:17;;;;;;;8.13;4.20;;;1.90;99.90;;;;;;5082097;28;20067;-68
2021/12/21 13:10:47;;;;;;;13.25;4.68;;;2.00;99.90;;;;;;5080745;28;20126;-67
2021/12/21 13:13:13;;;;;;;9.38;4.88;;;2.00;99.90;;;;;;5074774;28;20049;-67
2021/12/21 13:15:45;;;;;;;10.50;4.28;;;1.90;99.90;;;;;;5071005;28;20058;-69
2021/12/21 13:18:13;;;;;;;7.97;4.13;;;2.00;99.90;;;;;;5063189;28;20055;-67
2021/12/21 13:20:42;;;;;;;14.75;4.82;;;2.00;99.90;;;;;;5075705;28;20075;-67
2021/12/21 13:23:15;;;;;;;9.65;4.28;;;2.00;99.90;;;;;;5081223;28;20040;-66
2021/12/21 13:25:54;;;;;;;9.50;4.22;;;2.00;99.90;;;;;;5075167;28;20048;-67
2021/12/21 13:28:20;;;;;;;14.20;5.35;;;2.00;99.90;;;;;;5077505;28;20059;-67
2021/12/21 13:30:48;;;;;;;23.67;6.93;;;2.00;99.90;;;;;;5078684;28;20044;-68
2021/12/21 13:33:22;;;;;;;12.93;5.10;;;1.90;99.90;;;;;;5073209;28;20041;-69
2021/12/21 13:35:49;;;;;;;8.18;3.80;;;1.90;99.90;;;;;;5077040;28;20052;-67
2021/12/21 13:38:17;;;;;;;12.45;4.50;;;1.90;99.90;;;;;;5097335;28;20068;-67
2021/12/21 13:40:42;;;;;;;14.10;4.60;;;1.80;99.90;;;;;;5078731;28;20055;-66
2021/12/21 13:43:14;;;;;;;11.20;4.30;;;1.80;99.90;;;;;;5077873;28;20048;-67
2021/12/21 13:45:43;;;;;;;12.68;3.88;;;1.80;99.90;;;;;;5073775;28;20127;-67
2021/12/21 13:48:16;;;;;;;10.48;4.25;;;1.80;99.90;;;;;;5082840;28;20189;-67
2021/12/21 13:50:42;;;;;;;10.88;3.88;;;1.80;99.90;;;;;;5078069;28;20102;-68
2021/12/21 13:53:07;;;;;;;10.13;4.72;;;1.70;99.90;;;;;;5077767;28;20447;-67
2021/12/21 13:55:40;;;;;;;10.35;4.30;;;1.80;99.90;;;;;;5078390;28;20110;-66
2021/12/21 13:58:10;;;;;;;11.70;4.50;;;1.80;99.90;;;;;;5084186;28;20119;-67
2021/12/21 14:00:42;;;;;;;11.32;4.13;;;1.80;99.90;;;;;;5077849;28;20586;-68
2021/12/21 14:06:13;;;;;;;14.73;4.43;;;1.70;99.90;;;;;;5069537;28;20466;-67